Time;durP1;ratioP1;P1;durP2;ratioP2;P2;SDS_P1;SDS_P2;PMS_P1;PMS_P2;Temp;Humidity;BMP_temperature;BMP_pressure;BME280_temperature;BME280_humidity;BME280_pressure;Samples;Min_cycle;Max_cycle;Signal;HPM_P1;HPM_P2
2023/01/19 00:01:17;;;;;;;8.87;4.43;;;;;;;;;;5031255;28;20471;-79
2023/01/19 00:03:44;;;;;;;1.77;1.47;;;;;;;;;;5032847;28;20489;-78
2023/01/19 00:06:11;;;;;;;2.83;2.63;;;;;;;;;;5032924;28;20452;-79
2023/01/19 00:08:38;;;;;;;0.97;0.97;;;;;;;;;;5031478;28;20472;-80
2023/01/19 00:11:06;;;;;;;6.27;1.57;;;;;;;;;;5032784;28;20505;-81
2023/01/19 00:13:33;;;;;;;4.43;2.20;;;;;;;;;;5032726;28;20455;-80
2023/01/19 00:16:01;;;;;;;8.43;4.07;;;;;;;;;;5032855;28;20447;-80
2023/01/19 00:18:29;;;;;;;2.93;2.73;;;;;;;;;;5032873;28;20449;-80
2023/01/19 00:20:56;;;;;;;3.30;2.20;;;;;;;;;;5032843;28;20440;-81
2023/01/19 00:23:23;;;;;;;2.53;2.33;;;;;;;;;;5031386;28;20444;-80
2023/01/19 00:25:50;;;;;;;5.40;4.20;;;;;;;;;;5032654;28;20461;-81
2023/01/19 00:28:18;;;;;;;3.57;3.27;;;-2.80;99.90;;;;;;5030220;28;20455;-81
2023/01/19 00:30:46;;;;;;;8.43;3.30;;;;;;;;;;5032629;28;20455;-81
2023/01/19 00:33:14;;;;;;;7.40;4.53;;;;;;;;;;5032619;28;20452;-80
2023/01/19 00:35:42;;;;;;;1.60;1.50;;;;;;;;;;5032541;28;20510;-81
2023/01/19 00:38:09;;;;;;;7.20;4.20;;;;;;;;;;5031349;28;20493;-81
2023/01/19 00:40:36;;;;;;;4.27;2.03;;;;;;;;;;5032515;28;20448;-82
2023/01/19 00:43:03;;;;;;;2.73;1.60;;;;;;;;;;5032512;28;20451;-80
2023/01/19 00:45:31;;;;;;;4.90;3.77;;;;;;;;;;5032385;28;20502;-80
2023/01/19 00:47:58;;;;;;;3.80;2.83;;;;;;;;;;5032348;28;20449;-81
2023/01/19 00:50:28;;;;;;;2.00;1.83;;;-2.70;99.90;;;;;;5032374;28;20425;-81
2023/01/19 00:52:56;;;;;;;2.00;1.90;;;-2.70;99.90;;;;;;5031185;28;20453;-81
2023/01/19 00:55:23;;;;;;;10.03;5.03;;;;;;;;;;5032646;28;20454;-81
2023/01/19 00:57:50;;;;;;;6.23;3.60;;;;;;;;;;5033439;28;20458;-82
2023/01/19 01:00:19;;;;;;;1.57;1.47;;;-2.70;99.90;;;;;;5032493;28;20476;-81
2023/01/19 01:02:46;;;;;;;2.07;1.97;;;;;;;;;;5031264;28;20469;-81
2023/01/19 01:05:14;;;;;;;3.90;2.90;;;;;;;;;;5032737;28;20452;-81
2023/01/19 01:07:43;;;;;;;2.90;2.20;;;;;;;;;;5031615;28;20467;-82
2023/01/19 01:10:12;;;;;;;1.43;1.33;;;-2.70;99.90;;;;;;5036371;28;20455;-81
2023/01/19 01:12:40;;;;;;;10.97;5.73;;;;;;;;;;5036570;28;20461;-81
2023/01/19 01:15:09;;;;;;;3.10;2.30;;;-2.60;99.90;;;;;;5033849;28;20487;-81
2023/01/19 01:17:36;;;;;;;7.00;4.80;;;;;;;;;;5035558;28;20505;-80
2023/01/19 01:20:03;;;;;;;4.70;3.90;;;;;;;;;;5036071;28;20523;-81
2023/01/19 01:22:30;;;;;;;2.00;1.70;;;;;;;;;;5034664;28;20456;-80
2023/01/19 01:24:59;;;;;;;2.47;2.23;;;;;;;;;;5035938;28;20447;-81
2023/01/19 01:27:26;;;;;;;1.90;1.80;;;;;;;;;;5035746;28;20451;-81
2023/01/19 01:29:53;;;;;;;4.90;2.50;;;;;;;;;;5035888;28;20450;-81
2023/01/19 01:32:20;;;;;;;1.77;1.67;;;;;;;;;;5035856;28;20447;-81
2023/01/19 01:34:47;;;;;;;4.70;2.67;;;;;;;;;;5035527;28;20483;-81
2023/01/19 01:37:14;;;;;;;5.07;2.63;;;;;;;;;;5034232;28;20458;-81
2023/01/19 01:39:41;;;;;;;2.73;1.67;;;;;;;;;;5035650;28;20462;-81
2023/01/19 01:42:16;;;;;;;6.67;4.53;;;-2.70;99.90;;;;;;5035648;28;20457;-81
2023/01/19 01:44:51;;;;;;;2.03;1.67;;;;;;;;;;5035616;28;20455;-81
2023/01/19 01:47:26;;;;;;;2.43;2.23;;;-2.70;99.90;;;;;;5035515;28;20478;-81
2023/01/19 01:49:57;;;;;;;3.03;2.70;;;-2.70;99.90;;;;;;5035332;28;20461;-80
2023/01/19 01:52:28;;;;;;;11.80;2.67;;;-2.80;99.90;;;;;;5034296;28;20478;-80
2023/01/19 01:54:56;;;;;;;3.90;0.73;;;;;;;;;;5035317;28;20499;-80
2023/01/19 01:57:26;;;;;;;4.03;1.87;;;-2.80;99.90;;;;;;5035478;28;20454;-81
2023/01/19 01:59:57;;;;;;;1.57;1.47;;;-2.80;99.90;;;;;;5034993;28;20497;-81
2023/01/19 02:05:16;;;;;;;2.43;2.23;;;-2.80;99.90;;;;;;5035081;28;20481;-80
2023/01/19 02:13:21;;;;;;;8.77;3.47;;;;;;;;;;5035027;28;20439;-81
2023/01/19 02:15:49;;;;;;;7.80;4.67;;;;;;;;;;5034861;28;20551;-81
2023/01/19 02:18:17;;;;;;;1.90;1.17;;;;;;;;;;5035101;28;20451;-80
2023/01/19 02:20:52;;;;;;;3.50;2.60;;;-2.80;99.90;;;;;;5033777;28;20455;-79
2023/01/19 02:23:30;;;;;;;2.80;1.80;;;-2.80;99.90;;;;;;5033563;28;20451;-81
2023/01/19 02:25:59;;;;;;;4.93;3.50;;;-2.80;99.90;;;;;;5034891;28;20462;-81
2023/01/19 02:28:27;;;;;;;3.60;2.83;;;;;;;;;;5034870;28;20506;-80
2023/01/19 02:30:54;;;;;;;2.20;1.90;;;;;;;;;;5034854;28;20792;-81
2023/01/19 02:33:22;;;;;;;2.27;2.17;;;;;;;;;;5035068;28;20477;-80
2023/01/19 02:35:50;;;;;;;7.33;3.87;;;-2.90;99.90;;;;;;5032763;28;20491;-81
2023/01/19 02:38:20;;;;;;;3.47;2.50;;;-2.80;99.90;;;;;;5033677;28;20810;-81
2023/01/19 02:40:49;;;;;;;12.80;4.53;;;-2.90;99.90;;;;;;5035092;28;20448;-81
2023/01/19 02:43:18;;;;;;;1.77;1.63;;;-2.80;99.90;;;;;;5035060;28;20458;-80
2023/01/19 02:45:47;;;;;;;2.40;2.20;;;;;;;;;;5034952;28;20946;-81
2023/01/19 02:48:16;;;;;;;1.90;1.80;;;;;;;;;;5034799;28;20453;-80
2023/01/19 02:50:48;;;;;;;5.70;3.23;;;-2.80;99.90;;;;;;5035281;28;20809;-82
2023/01/19 02:53:53;;;;;;;3.63;1.50;;;-2.80;99.90;;;;;;5033940;28;20452;-81
2023/01/19 02:56:52;;;;;;;8.57;3.20;;;-2.80;99.90;;;;;;5016234;28;20487;-81
2023/01/19 02:59:30;;;;;;;3.57;2.13;;;-2.80;99.90;;;;;;5034835;28;20454;-81
2023/01/19 03:02:11;;;;;;;2.33;2.13;;;-2.80;99.90;;;;;;5034893;28;20481;-82
2023/01/19 03:04:54;;;;;;;1.27;1.17;;;-2.90;99.90;;;;;;5034877;28;20445;-79
2023/01/19 03:07:29;;;;;;;4.57;3.90;;;-2.80;99.90;;;;;;5033695;28;20489;-82
2023/01/19 03:10:03;;;;;;;5.60;3.23;;;-2.80;99.90;;;;;;5034869;28;20857;-82
2023/01/19 03:12:40;;;;;;;2.77;2.07;;;-2.90;99.90;;;;;;5034613;28;20455;-81
2023/01/19 03:15:19;;;;;;;6.20;2.27;;;-2.80;99.90;;;;;;5034282;28;20490;-80
2023/01/19 03:17:48;;;;;;;3.30;2.20;;;-2.80;99.90;;;;;;5016328;28;20471;-81
2023/01/19 03:20:20;;;;;;;3.40;2.63;;;-2.80;99.90;;;;;;5034630;28;20462;-81
2023/01/19 03:22:49;;;;;;;4.40;2.10;;;-2.70;99.90;;;;;;5033294;28;20451;-81
2023/01/19 03:25:19;;;;;;;4.10;2.67;;;-2.70;99.90;;;;;;5034734;28;20452;-81
2023/01/19 03:27:48;;;;;;;5.63;3.70;;;-2.80;99.90;;;;;;5034784;28;20454;-80
2023/01/19 03:30:20;;;;;;;2.50;1.90;;;-2.80;99.90;;;;;;5034574;28;20449;-81
2023/01/19 03:32:51;;;;;;;5.20;4.10;;;-2.80;99.90;;;;;;5034172;28;20813;-81
2023/01/19 03:35:21;;;;;;;1.27;1.20;;;-2.80;99.90;;;;;;5034677;28;20503;-80
2023/01/19 03:37:50;;;;;;;0.87;0.83;;;-2.80;99.90;;;;;;5033559;28;20447;-82
2023/01/19 03:40:18;;;;;;;2.23;1.70;;;;;;;;;;5033209;28;20451;-81
2023/01/19 03:42:45;;;;;;;9.60;4.63;;;;;;;;;;5034189;28;20450;-80
2023/01/19 03:45:14;;;;;;;4.50;1.13;;;-3.00;99.90;;;;;;5036191;28;20455;-81
2023/01/19 03:47:42;;;;;;;6.40;3.17;;;;;;;;;;5038371;28;20447;-81
2023/01/19 03:50:14;;;;;;;1.33;0.90;;;-2.90;99.90;;;;;;5034685;28;20977;-81
2023/01/19 03:52:41;;;;;;;1.63;1.37;;;;;;;;;;5032444;28;20501;-81
2023/01/19 03:55:09;;;;;;;3.63;2.33;;;;;;;;;;5033478;28;20493;-81
2023/01/19 03:57:36;;;;;;;2.93;0.93;;;-3.20;99.90;;;;;;5033573;28;20451;-81
2023/01/19 04:00:04;;;;;;;4.97;4.30;;;;;;;;;;5033333;28;20491;-81
2023/01/19 04:02:32;;;;;;;1.50;1.30;;;;;;;;;;5033403;28;20808;-81
2023/01/19 04:04:59;;;;;;;3.23;1.67;;;;;;;;;;5033388;28;20823;-81
2023/01/19 04:07:27;;;;;;;6.37;3.60;;;;;;;;;;5031954;28;20936;-80
2023/01/19 04:09:54;;;;;;;3.43;2.57;;;;;;;;;;5033245;28;20515;-80
2023/01/19 04:12:21;;;;;;;2.30;2.20;;;;;;;;;;5033283;28;20447;-81
2023/01/19 04:14:48;;;;;;;3.57;2.90;;;;;;;;;;5033034;28;20483;-81
2023/01/19 04:17:15;;;;;;;1.57;1.47;;;;;;;;;;5030883;28;20450;-81
2023/01/19 04:19:44;;;;;;;7.30;3.50;;;;;;;;;;5032991;28;20446;-81
2023/01/19 04:22:11;;;;;;;1.87;1.30;;;;;;;;;;5032023;28;20447;-81
2023/01/19 04:24:38;;;;;;;9.07;2.50;;;;;;;;;;5032989;28;20429;-81
2023/01/19 04:27:05;;;;;;;8.80;4.43;;;;;;;;;;5033041;28;20446;-81
2023/01/19 04:29:32;;;;;;;4.23;2.40;;;;;;;;;;5033062;28;20452;-81
2023/01/19 04:31:59;;;;;;;1.37;1.10;;;;;;;;;;5032439;28;20794;-79
2023/01/19 04:34:26;;;;;;;4.17;2.00;;;;;;;;;;5032897;28;20469;-81
2023/01/19 04:36:55;;;;;;;3.87;2.80;;;;;;;;;;5031590;28;20487;-80
2023/01/19 04:39:22;;;;;;;2.87;2.20;;;;;;;;;;5033035;28;20429;-81
2023/01/19 04:41:50;;;;;;;3.70;1.37;;;;;;;;;;5033032;28;20941;-81
2023/01/19 04:44:17;;;;;;;4.27;2.80;;;;;;;;;;5036394;28;20457;-81
2023/01/19 04:46:44;;;;;;;1.33;1.07;;;;;;;;;;5037013;28;21023;-80
2023/01/19 04:49:12;;;;;;;6.73;4.43;;;;;;;;;;5036509;28;20447;-79
2023/01/19 04:51:39;;;;;;;2.83;2.13;;;;;;;;;;5036201;28;20449;-80
2023/01/19 04:54:07;;;;;;;8.83;4.87;;;-3.50;99.90;;;;;;5036500;28;20458;-79
2023/01/19 04:56:34;;;;;;;2.90;1.80;;;;;;;;;;5036841;28;20496;-80
2023/01/19 04:59:01;;;;;;;2.97;2.77;;;;;;;;;;5036765;28;20450;-80
2023/01/19 05:01:29;;;;;;;4.83;3.40;;;;;;;;;;5036589;28;20453;-81
2023/01/19 05:03:56;;;;;;;4.57;2.57;;;;;;;;;;5036731;28;20460;-80
2023/01/19 05:06:23;;;;;;;9.27;4.30;;;;;;;;;;5036606;28;20477;-80
2023/01/19 05:08:50;;;;;;;7.30;5.10;;;;;;;;;;5035468;28;20454;-81
2023/01/19 05:11:19;;;;;;;5.13;3.70;;;;;;;;;;5035070;28;20506;-79
2023/01/19 05:13:46;;;;;;;3.90;1.93;;;;;;;;;;5036654;28;20822;-81
2023/01/19 05:16:13;;;;;;;2.50;2.30;;;;;;;;;;5036338;28;20500;-81
2023/01/19 05:18:40;;;;;;;2.87;2.63;;;;;;;;;;5036567;28;20876;-81
2023/01/19 05:21:08;;;;;;;2.00;1.90;;;;;;;;;;5036414;28;20450;-81
2023/01/19 05:23:35;;;;;;;6.67;4.90;;;;;;;;;;5033672;28;21043;-81
2023/01/19 05:26:02;;;;;;;4.83;2.47;;;;;;;;;;5036325;28;20454;-80
2023/01/19 05:28:32;;;;;;;2.10;1.63;;;-3.00;99.90;;;;;;5036227;28;20455;-81
2023/01/19 05:30:59;;;;;;;5.13;3.00;;;;;;;;;;5036243;28;20933;-81
2023/01/19 05:33:26;;;;;;;2.50;2.30;;;;;;;;;;5036145;28;20942;-81
2023/01/19 05:35:54;;;;;;;1.43;1.13;;;-3.00;99.90;;;;;;5036272;28;20877;-81
2023/01/19 05:38:22;;;;;;;4.33;2.83;;;;;;;;;;5035037;28;20449;-81
2023/01/19 05:40:49;;;;;;;3.37;3.07;;;;;;;;;;5036148;28;20454;-80
2023/01/19 05:43:16;;;;;;;4.30;3.90;;;;;;;;;;5035898;28;20922;-80
2023/01/19 05:45:44;;;;;;;5.53;3.30;;;;;;;;;;5035820;28;20453;-81
2023/01/19 05:48:11;;;;;;;3.60;3.00;;;;;;;;;;5035859;28;20429;-80
2023/01/19 05:50:38;;;;;;;3.80;2.43;;;;;;;;;;5035866;28;20535;-80
2023/01/19 05:53:05;;;;;;;3.40;2.03;;;;;;;;;;5034540;28;20452;-79
2023/01/19 05:55:32;;;;;;;3.10;2.83;;;;;;;;;;5035237;28;20479;-79
2023/01/19 05:58:00;;;;;;;3.23;1.37;;;;;;;;;;5035535;28;20451;-79
2023/01/19 06:00:27;;;;;;;1.80;1.60;;;;;;;;;;5035556;28;20518;-79
2023/01/19 06:02:56;;;;;;;6.17;4.33;;;;;;;;;;5034119;28;20511;-80
2023/01/19 06:05:24;;;;;;;4.53;3.57;;;;;;;;;;5035269;28;20453;-80
2023/01/19 06:07:51;;;;;;;1.37;1.27;;;;;;;;;;5034195;28;20998;-80
2023/01/19 06:10:18;;;;;;;8.73;4.73;;;;;;;;;;5035329;28;20458;-80
2023/01/19 06:12:45;;;;;;;1.80;1.50;;;;;;;;;;5035315;28;20447;-80
2023/01/19 06:15:13;;;;;;;6.17;2.80;;;;;;;;;;5035309;28;20427;-80
2023/01/19 06:17:40;;;;;;;3.20;2.57;;;;;;;;;;5035459;28;20537;-81
2023/01/19 06:20:10;;;;;;;5.23;3.10;;;-3.20;99.90;;;;;;5033940;28;20449;-79
2023/01/19 06:22:37;;;;;;;2.83;1.67;;;;;;;;;;5034008;28;20449;-79
2023/01/19 06:25:04;;;;;;;5.27;3.77;;;;;;;;;;5035060;28;20473;-80
2023/01/19 06:27:31;;;;;;;6.57;2.73;;;;;;;;;;5035126;28;20455;-79
2023/01/19 06:29:58;;;;;;;4.50;3.60;;;;;;;;;;5035004;28;20447;-80
2023/01/19 06:32:25;;;;;;;2.73;2.50;;;;;;;;;;5035002;28;20454;-79
2023/01/19 06:34:52;;;;;;;1.43;1.33;;;;;;;;;;5035052;28;20457;-79
2023/01/19 06:37:20;;;;;;;3.47;3.07;;;;;;;;;;5033597;28;20490;-79
2023/01/19 06:39:47;;;;;;;0.73;0.73;;;;;;;;;;5034794;28;20444;-79
2023/01/19 06:42:15;;;;;;;10.07;4.10;;;;;;;;;;5034880;28;20458;-79
2023/01/19 06:44:46;;;;;;;3.27;1.93;;;;;;;;;;5034788;28;20462;-80
2023/01/19 06:47:13;;;;;;;4.07;2.93;;;;;;;;;;5034771;28;20495;-79
2023/01/19 06:49:40;;;;;;;4.60;3.27;;;;;;;;;;5034811;28;20459;-79
2023/01/19 06:52:08;;;;;;;4.13;3.33;;;-2.50;99.90;;;;;;5033412;28;20982;-78
2023/01/19 06:54:37;;;;;;;1.50;1.40;;;-2.50;99.90;;;;;;5034532;28;20463;-79
2023/01/19 06:57:04;;;;;;;1.57;1.33;;;;;;;;;;5033616;28;20496;-78
2023/01/19 06:59:31;;;;;;;3.13;2.90;;;;;;;;;;5034501;28;20447;-78
2023/01/19 07:01:58;;;;;;;4.40;4.03;;;;;;;;;;5034285;28;20483;-80
2023/01/19 07:04:25;;;;;;;2.90;2.10;;;;;;;;;;5034485;28;20455;-80
2023/01/19 07:06:53;;;;;;;2.93;2.37;;;;;;;;;;5032298;28;20832;-80
2023/01/19 07:09:20;;;;;;;3.83;3.50;;;;;;;;;;5034730;28;20448;-80
2023/01/19 07:11:48;;;;;;;6.93;2.47;;;;;;;;;;5033323;28;20478;-80
2023/01/19 07:14:16;;;;;;;3.00;1.50;;;;;;;;;;5034680;28;20446;-81
2023/01/19 07:16:43;;;;;;;2.30;1.63;;;;;;;;;;5034336;28;21018;-80
2023/01/19 07:19:10;;;;;;;5.20;3.63;;;;;;;;;;5034409;28;20475;-80
2023/01/19 07:21:37;;;;;;;2.20;2.03;;;;;;;;;;5033924;28;20927;-79
2023/01/19 07:24:05;;;;;;;3.40;2.40;;;;;;;;;;5042400;28;20445;-79
2023/01/19 07:26:32;;;;;;;2.40;1.77;;;;;;;;;;5047432;28;20934;-78
2023/01/19 07:29:00;;;;;;;5.10;3.03;;;;;;;;;;5046126;28;20790;-79
2023/01/19 07:31:27;;;;;;;1.17;0.63;;;;;;;;;;5042296;28;20439;-78
2023/01/19 07:33:54;;;;;;;5.80;2.30;;;;;;;;;;5050931;28;20472;-80
2023/01/19 07:36:21;;;;;;;4.80;3.43;;;;;;;;;;5047738;28;20850;-82
2023/01/19 07:38:48;;;;;;;2.80;2.20;;;;;;;;;;5032555;28;20447;-80
2023/01/19 07:41:15;;;;;;;2.27;1.57;;;;;;;;;;5033774;28;20802;-79
2023/01/19 07:43:42;;;;;;;7.70;4.00;;;;;;;;;;5033525;28;20447;-78
2023/01/19 07:46:11;;;;;;;6.03;3.60;;;;;;;;;;5033743;28;20455;-79
2023/01/19 07:48:38;;;;;;;5.93;2.03;;;;;;;;;;5036663;28;20451;-80
2023/01/19 07:51:07;;;;;;;3.70;2.90;;;-2.30;99.90;;;;;;5053664;28;20446;-80
2023/01/19 07:53:34;;;;;;;1.07;0.97;;;;;;;;;;5052161;28;20968;-78
2023/01/19 07:56:01;;;;;;;3.80;2.37;;;;;;;;;;5052113;28;20995;-82
2023/01/19 07:58:28;;;;;;;9.60;3.17;;;;;;;;;;5053526;28;20505;-78
2023/01/19 08:00:55;;;;;;;4.27;3.60;;;;;;;;;;5053203;28;20473;-79
2023/01/19 08:03:23;;;;;;;6.37;4.33;;;-2.20;99.90;;;;;;5052071;28;20925;-80
2023/01/19 08:05:51;;;;;;;2.90;2.67;;;;;;;;;;5013643;28;20471;-80
2023/01/19 08:08:18;;;;;;;1.63;1.53;;;;;;;;;;5012624;28;20480;-78
2023/01/19 08:10:45;;;;;;;4.10;2.90;;;;;;;;;;5013626;28;20450;-78
2023/01/19 08:13:13;;;;;;;7.27;4.27;;;;;;;;;;5013510;28;20451;-81
2023/01/19 08:15:40;;;;;;;2.07;1.67;;;;;;;;;;5013443;28;20455;-79
2023/01/19 08:18:08;;;;;;;4.00;2.23;;;;;;;;;;5027704;28;20556;-79
2023/01/19 08:20:37;;;;;;;2.47;2.10;;;-2.20;99.90;;;;;;5027888;28;20452;-79
2023/01/19 08:23:08;;;;;;;2.37;1.60;;;;;;;;;;5034863;28;20459;-77
2023/01/19 08:25:36;;;;;;;1.87;1.30;;;-2.20;99.90;;;;;;5013348;28;20423;-81
2023/01/19 08:28:05;;;;;;;2.53;2.33;;;-2.20;99.90;;;;;;5030969;28;20430;-79
2023/01/19 08:30:32;;;;;;;5.40;2.00;;;;;;;;;;5032918;28;20434;-80
2023/01/19 08:33:03;;;;;;;4.13;1.80;;;;;;;;;;5032853;28;20455;-78
2023/01/19 08:35:31;;;;;;;2.60;1.80;;;;;;;;;;5032547;28;20510;-79
2023/01/19 08:38:00;;;;;;;5.23;2.87;;;;;;;;;;5031519;28;20491;-78
2023/01/19 08:40:28;;;;;;;1.17;0.93;;;;;;;;;;5032797;28;20828;-80
2023/01/19 08:43:02;;;;;;;5.03;2.83;;;-1.10;99.90;;;;;;5032717;28;20452;-81
2023/01/19 08:45:29;;;;;;;2.63;1.40;;;;;;;;;;5015605;28;20831;-78
2023/01/19 08:47:57;;;;;;;2.83;2.50;;;;;;;;;;5013054;28;20531;-80
2023/01/19 08:50:24;;;;;;;1.00;0.83;;;;;;;;;;5013028;28;20452;-80
2023/01/19 08:52:54;;;;;;;0.57;0.57;;;;;;;;;;5011633;28;20449;-80
2023/01/19 08:55:22;;;;;;;2.50;1.70;;;;;;;;;;5011148;28;20506;-80
2023/01/19 08:57:51;;;;;;;0.83;0.80;;;;;;;;;;5012588;28;20487;-82
2023/01/19 09:00:19;;;;;;;3.03;2.63;;;;;;;;;;5012891;28;20483;-79
2023/01/19 09:02:46;;;;;;;2.83;1.53;;;;;;;;;;5013004;28;20457;-81
2023/01/19 09:05:13;;;;;;;1.33;1.23;;;;;;;;;;5013032;28;20506;-80
2023/01/19 09:07:40;;;;;;;2.57;1.97;;;;;;;;;;5011805;28;20455;-81
2023/01/19 09:10:09;;;;;;;3.67;2.10;;;0.40;99.90;;;;;;5012953;28;20455;-81
2023/01/19 09:12:37;;;;;;;3.03;2.17;;;0.40;99.90;;;;;;5012831;28;20973;-80
2023/01/19 09:15:04;;;;;;;4.37;3.00;;;;;;;;;;5012859;28;20451;-80
2023/01/19 09:17:31;;;;;;;1.73;1.63;;;;;;;;;;5012704;28;21008;-80
2023/01/19 09:19:58;;;;;;;2.03;1.63;;;;;;;;;;5012836;28;20452;-80
2023/01/19 09:22:26;;;;;;;5.87;3.23;;;;;;;;;;5011485;28;20444;-79
2023/01/19 09:24:53;;;;;;;2.23;1.47;;;;;;;;;;5013051;28;20448;-80
2023/01/19 09:27:20;;;;;;;2.90;1.33;;;;;;;;;;5030825;28;20464;-80
2023/01/19 09:29:51;;;;;;;2.10;1.83;;;;;;;;;;5033257;28;20480;-80
2023/01/19 09:32:18;;;;;;;1.20;0.93;;;;;;;;;;5034050;28;20532;-80
2023/01/19 09:34:45;;;;;;;2.80;1.10;;;;;;;;;;5035663;28;20508;-80
2023/01/19 09:37:14;;;;;;;2.10;1.20;;;;;;;;;;5034221;28;20502;-80
2023/01/19 09:39:41;;;;;;;0.73;0.73;;;;;;;;;;5035928;28;20454;-80
2023/01/19 09:42:12;;;;;;;0.50;0.50;;;;;;;;;;5035775;28;20463;-80
2023/01/19 09:44:41;;;;;;;1.70;1.60;;;0.00;99.90;;;;;;5035802;28;20844;-80
2023/01/19 09:47:16;;;;;;;1.90;0.70;;;0.90;99.90;;;;;;5035792;28;20457;-80
2023/01/19 09:49:47;;;;;;;4.33;2.70;;;1.00;99.90;;;;;;5035740;28;20447;-79
2023/01/19 09:52:15;;;;;;;3.50;2.63;;;;;;;;;;5034483;28;20946;-79
2023/01/19 09:54:47;;;;;;;1.87;1.60;;;;;;;;;;5035810;28;20452;-79
2023/01/19 09:57:14;;;;;;;2.73;2.47;;;;;;;;;;5035753;28;20483;-80
2023/01/19 09:59:42;;;;;;;1.43;1.30;;;0.90;99.90;;;;;;5035570;28;20454;-77
2023/01/19 10:02:24;;;;;;;2.93;2.40;;;;;;;;;;5035512;28;20444;-81
2023/01/19 10:04:59;;;;;;;3.10;2.60;;;0.60;99.90;;;;;;5035644;28;20777;-81
2023/01/19 10:07:32;;;;;;;3.87;2.40;;;;;;;;;;5034232;28;20447;-82
2023/01/19 10:10:10;;;;;;;2.00;1.53;;;;;;;;;;5035061;28;20454;-80
2023/01/19 10:12:45;;;;;;;3.43;2.20;;;0.20;99.90;;;;;;5035453;28;20454;-80
2023/01/19 10:15:20;;;;;;;1.43;1.27;;;0.10;99.90;;;;;;5035090;28;20445;-81
2023/01/19 10:17:52;;;;;;;2.17;1.90;;;;;;;;;;5035324;28;20494;-80
2023/01/19 10:20:24;;;;;;;0.77;0.60;;;;;;;;;;5035440;28;20447;-81
2023/01/19 10:22:52;;;;;;;1.93;1.80;;;;;;;;;;5034122;28;20452;-81
2023/01/19 10:25:22;;;;;;;3.40;2.37;;;-0.10;99.90;;;;;;5035307;28;20444;-80
2023/01/19 10:27:49;;;;;;;1.20;1.10;;;;;;;;;;5035215;28;20456;-81
2023/01/19 10:30:21;;;;;;;3.50;2.07;;;;;;;;;;5035170;28;20470;-82
2023/01/19 10:32:49;;;;;;;2.20;1.70;;;;;;;;;;5035183;28;20448;-80
2023/01/19 10:35:22;;;;;;;1.90;1.60;;;;;;;;;;5035053;28;20447;-81
2023/01/19 10:37:49;;;;;;;2.33;1.83;;;;;;;;;;5033777;28;20503;-80
2023/01/19 10:40:21;;;;;;;11.57;3.03;;;;;;;;;;5034307;28;20462;-82
2023/01/19 10:42:48;;;;;;;2.77;2.00;;;;;;;;;;5034826;28;20443;-80
2023/01/19 10:45:16;;;;;;;1.80;1.67;;;;;;;;;;5034893;28;20462;-82
2023/01/19 10:47:44;;;;;;;2.73;2.27;;;;;;;;;;5034549;28;20800;-81
2023/01/19 10:50:24;;;;;;;2.77;1.77;;;;;;;;;;5034645;28;20459;-80
2023/01/19 10:52:52;;;;;;;7.23;3.20;;;;;;;;;;5029178;28;20491;-80
2023/01/19 10:55:27;;;;;;;1.03;0.80;;;;;;;;;;5014881;28;20457;-80
2023/01/19 10:57:54;;;;;;;3.27;2.57;;;;;;;;;;5014524;28;20498;-80
2023/01/19 11:00:32;;;;;;;1.67;1.53;;;;;;;;;;5014068;28;20834;-77
2023/01/19 11:02:59;;;;;;;1.30;1.20;;;;;;;;;;5014725;28;20471;-80
2023/01/19 11:05:29;;;;;;;4.03;2.97;;;0.40;99.90;;;;;;5014998;28;20448;-81
2023/01/19 11:07:56;;;;;;;1.70;1.13;;;;;;;;;;5013491;28;20456;-81
2023/01/19 11:10:24;;;;;;;1.43;1.20;;;;;;;;;;5014501;28;20451;-79
2023/01/19 11:13:00;;;;;;;1.57;1.30;;;;;;;;;;5014392;28;20510;-80
2023/01/19 11:15:30;;;;;;;3.40;2.23;;;;;;;;;;5014435;28;20459;-78
2023/01/19 11:17:57;;;;;;;1.50;0.60;;;;;;;;;;5014346;28;20497;-78
2023/01/19 11:20:26;;;;;;;1.93;1.00;;;;;;;;;;5014327;28;20467;-78
2023/01/19 11:23:05;;;;;;;1.10;0.97;;;;;;;;;;5013155;28;20456;-78
2023/01/19 11:25:35;;;;;;;5.80;5.27;;;1.70;99.90;;;;;;5014061;28;20448;-78
2023/01/19 11:28:02;;;;;;;5.10;4.67;;;;;;;;;;5014296;28;20459;-78
2023/01/19 11:30:30;;;;;;;52.07;37.57;;;;;;;;;;5014162;28;20463;-79
2023/01/19 11:32:57;;;;;;;36.87;31.30;;;;;;;;;;5014130;28;20452;-78
2023/01/19 11:35:35;;;;;;;12.93;11.70;;;;;;;;;;5014124;28;20459;-79
2023/01/19 11:38:07;;;;;;;22.10;20.17;;;;;;;;;;5012350;28;20499;-79
2023/01/19 11:40:35;;;;;;;11.03;10.23;;;;;;;;;;5013983;28;20460;-79
2023/01/19 11:43:02;;;;;;;6.27;5.83;;;;;;;;;;5013707;28;20506;-78
2023/01/19 11:45:29;;;;;;;4.90;4.20;;;;;;;;;;5013996;28;20448;-79
2023/01/19 11:47:56;;;;;;;4.67;2.83;;;;;;;;;;5013954;28;20813;-81
2023/01/19 11:50:24;;;;;;;6.20;2.93;;;;;;;;;;5013767;28;20471;-80
2023/01/19 11:52:56;;;;;;;1.37;1.27;;;2.00;99.90;;;;;;5012412;28;20469;-80
2023/01/19 11:55:28;;;;;;;6.03;2.30;;;;;;;;;;5013698;28;20452;-77
2023/01/19 11:57:55;;;;;;;2.83;2.60;;;;;;;;;;5013727;28;20488;-77
2023/01/19 12:00:27;;;;;;;1.80;1.70;;;;;;;;;;5013533;28;20479;-78
2023/01/19 12:02:59;;;;;;;4.17;3.03;;;1.70;99.90;;;;;;4994073;28;20469;-78
2023/01/19 12:05:32;;;;;;;2.13;1.60;;;1.90;99.90;;;;;;4993064;28;20454;-78
2023/01/19 12:08:01;;;;;;;3.73;2.00;;;;;;;;;;4992689;28;20449;-83
2023/01/19 12:10:32;;;;;;;4.07;1.63;;;;;;;;;;4993607;28;20449;-79
2023/01/19 12:13:00;;;;;;;1.20;1.03;;;;;;;;;;4993940;28;20449;-80
2023/01/19 12:15:35;;;;;;;4.70;3.57;;;1.20;99.90;;;;;;4990510;28;20456;-81
2023/01/19 12:18:04;;;;;;;3.27;1.30;;;1.30;99.90;;;;;;4993629;28;20496;-81
2023/01/19 12:20:34;;;;;;;5.03;3.07;;;1.40;99.90;;;;;;4989944;28;20457;-81
2023/01/19 12:23:08;;;;;;;2.23;2.03;;;;;;;;;;4992348;28;20468;-81
2023/01/19 12:25:43;;;;;;;3.63;3.03;;;;;;;;;;4993662;28;20579;-80
2023/01/19 12:28:13;;;;;;;3.80;2.53;;;;;;;;;;4993497;28;20448;-80
2023/01/19 12:30:40;;;;;;;4.37;2.40;;;;;;;;;;4993542;28;20948;-80
2023/01/19 12:33:33;;;;;;;3.73;2.30;;;;;;;;;;4993651;28;20577;-81
2023/01/19 12:36:02;;;;;;;4.17;2.60;;;;;;;;;;4993701;28;20448;-80
2023/01/19 12:38:47;;;;;;;4.30;2.80;;;;;;;;;;4992191;28;20496;-81
2023/01/19 12:41:23;;;;;;;3.70;2.53;;;;;;;;;;4993634;28;20460;-82
2023/01/19 12:44:10;;;;;;;1.70;1.10;;;;;;;;;;4993609;28;20457;-79
2023/01/19 12:46:38;;;;;;;3.17;2.70;;;;;;;;;;4993398;28;20452;-81
2023/01/19 12:49:09;;;;;;;2.50;2.10;;;;;;;;;;4993237;28;20453;-79
2023/01/19 12:51:36;;;;;;;2.50;1.77;;;;;;;;;;4993260;28;20452;-81
2023/01/19 12:54:06;;;;;;;3.53;2.77;;;;;;;;;;4957737;28;20845;-81
2023/01/19 12:56:39;;;;;;;3.63;2.67;;;1.00;99.90;;;;;;4993467;28;20964;-79
2023/01/19 12:59:06;;;;;;;1.73;1.60;;;;;;;;;;4993369;28;20497;-79
2023/01/19 13:01:33;;;;;;;5.33;3.83;;;;;;;;;;4993298;28;20480;-85
2023/01/19 13:04:01;;;;;;;2.43;1.57;;;;;;;;;;4994510;28;20476;-78
2023/01/19 13:06:49;;;;;;;5.03;2.83;;;;;;;;;;4996584;28;20461;-79
2023/01/19 13:09:29;;;;;;;3.43;1.63;;;1.00;99.90;;;;;;4997226;28;20936;-79
2023/01/19 13:12:23;;;;;;;5.27;3.50;;;1.00;99.90;;;;;;4994505;28;20957;-80
2023/01/19 13:14:50;;;;;;;3.17;2.10;;;;;;;;;;4997056;28;20456;-81
2023/01/19 13:17:21;;;;;;;3.10;2.40;;;;;;;;;;4997120;28;20457;-81
2023/01/19 13:19:54;;;;;;;3.63;2.60;;;;;;;;;;4997111;28;20456;-79
2023/01/19 13:22:40;;;;;;;3.00;2.27;;;;;;;;;;4995599;28;20452;-80
2023/01/19 13:25:09;;;;;;;3.40;2.40;;;;;;;;;;4996714;28;20452;-81
2023/01/19 13:27:38;;;;;;;4.80;2.00;;;1.10;99.90;;;;;;4997147;28;20964;-81
2023/01/19 13:30:11;;;;;;;1.73;1.43;;;;;;;;;;4997362;28;20459;-80
2023/01/19 13:32:41;;;;;;;3.67;2.17;;;;;;;;;;5003326;28;20801;-81
2023/01/19 13:35:13;;;;;;;5.83;2.53;;;;;;;;;;5016440;28;20502;-82
2023/01/19 13:37:41;;;;;;;1.57;1.47;;;;;;;;;;5015217;28;20459;-81
2023/01/19 13:40:16;;;;;;;1.70;1.60;;;;;;;;;;5016250;28;20463;-80
2023/01/19 13:42:44;;;;;;;9.43;3.20;;;;;;;;;;5016291;28;20458;-82
2023/01/19 13:45:17;;;;;;;16.70;9.80;;;;;;;;;;5016064;28;20457;-80
2023/01/19 13:47:46;;;;;;;14.53;8.13;;;0.90;99.90;;;;;;5016129;28;20458;-81
2023/01/19 13:50:19;;;;;;;25.83;15.00;;;0.90;99.90;;;;;;5016197;28;20454;-81
2023/01/19 13:52:47;;;;;;;13.23;9.70;;;;;;;;;;5014758;28;20468;-82
2023/01/19 13:55:16;;;;;;;18.73;12.00;;;0.90;99.90;;;;;;5016144;28;20514;-81
2023/01/19 13:57:45;;;;;;;5.07;3.90;;;;;;;;;;5015967;28;20448;-81
2023/01/19 14:00:17;;;;;;;12.20;7.00;;;;;;;;;;5015890;28;20538;-82
2023/01/19 14:02:56;;;;;;;4.10;2.90;;;0.80;99.90;;;;;;5015999;28;20448;-81
2023/01/19 14:05:26;;;;;;;17.90;9.93;;;0.80;99.90;;;;;;5016154;28;20448;-81
2023/01/19 14:08:03;;;;;;;6.20;3.40;;;;;;;;;;5014645;28;20452;-83
2023/01/19 14:10:31;;;;;;;1.70;1.60;;;;;;;;;;5012836;28;20486;-80
2023/01/19 14:13:01;;;;;;;4.40;3.77;;;0.80;99.90;;;;;;5010515;28;20484;-80
2023/01/19 14:15:29;;;;;;;4.53;2.60;;;;;;;;;;5014161;28;20444;-80
2023/01/19 14:18:20;;;;;;;2.30;1.70;;;0.80;99.90;;;;;;5015452;28;20453;-82
2023/01/19 14:20:52;;;;;;;2.87;1.90;;;;;;;;;;5015450;28;20440;-82
2023/01/19 14:23:42;;;;;;;5.03;2.93;;;0.90;99.90;;;;;;5014384;28;20448;-82
2023/01/19 14:26:42;;;;;;;3.60;2.40;;;0.80;99.90;;;;;;5015573;28;20542;-82
2023/01/19 14:29:32;;;;;;;4.40;2.63;;;0.90;99.90;;;;;;5015282;28;20459;-82
2023/01/19 14:32:13;;;;;;;1.67;1.13;;;0.80;99.90;;;;;;5009724;28;20964;-82
2023/01/19 14:34:41;;;;;;;5.23;3.27;;;0.80;99.90;;;;;;5015231;28;20506;-82